Huntsville (HSV/KHSV)

Map

Destinations

Information

Location
Huntsville, AL
Local Time
20:45 / 8:45 pm
GMT Time
02:45 / 2:45 am
Gates
Unassigned
No FAA reported delays
METAR KHSV 170153Z 13007KT 10SM BKN065 OVC080 18/12 A3014 RMK AO2 SLP205 T01780117
TAF KHSV 162320Z 1700/1724 18008KT P6SM SCT050 BKN100 FM170600 18011KT P6SM VCSH BKN030 FM171500 20011KT P6SM -SHRA SCT007 OVC010 FM172000 20011KT P6SM -SHRA SCT010 OVC025
  • No charts available